sensor_id;sensor_type;location;lat;lon;timestamp;pressure;altitude;pressure_sealevel;temperature;humidity
61039;BME280;46919;45.816;3.104;2023-02-01T00:01:08;99075.13;;;3.38;96.25
61039;BME280;46919;45.816;3.104;2023-02-01T00:03:33;99070.06;;;3.35;96.54
61039;BME280;46919;45.816;3.104;2023-02-01T00:05:59;99070.91;;;3.36;96.57
61039;BME280;46919;45.816;3.104;2023-02-01T00:08:25;99070.22;;;3.34;96.82
61039;BME280;46919;45.816;3.104;2023-02-01T00:10:59;99064.72;;;3.35;96.37
61039;BME280;46919;45.816;3.104;2023-02-01T00:13:25;99073.03;;;3.32;96.86
61039;BME280;46919;45.816;3.104;2023-02-01T00:15:52;99072.34;;;3.30;96.89
61039;BME280;46919;45.816;3.104;2023-02-01T00:18:17;99069.53;;;3.32;96.64
61039;BME280;46919;45.816;3.104;2023-02-01T00:20:46;99067.41;;;3.35;96.44
61039;BME280;46919;45.816;3.104;2023-02-01T00:23:12;99073.56;;;3.36;96.56
61039;BME280;46919;45.816;3.104;2023-02-01T00:25:37;99069.41;;;3.33;96.45
61039;BME280;46919;45.816;3.104;2023-02-01T00:28:02;99069.41;;;3.33;96.72
61039;BME280;46919;45.816;3.104;2023-02-01T00:30:28;99073.03;;;3.32;96.47
61039;BME280;46919;45.816;3.104;2023-02-01T00:32:53;99067.56;;;3.34;96.75
61039;BME280;46919;45.816;3.104;2023-02-01T00:35:19;99069.09;;;3.36;96.01
61039;BME280;46919;45.816;3.104;2023-02-01T00:37:44;99074.59;;;3.35;96.39
61039;BME280;46919;45.816;3.104;2023-02-01T00:40:10;99073.72;;;3.34;96.12
61039;BME280;46919;45.816;3.104;2023-02-01T00:42:35;99072.50;;;3.29;96.92
61039;BME280;46919;45.816;3.104;2023-02-01T00:45:01;99062.94;;;3.26;97.03
61039;BME280;46919;45.816;3.104;2023-02-01T00:47:26;99068.28;;;3.26;97.07
61039;BME280;46919;45.816;3.104;2023-02-01T00:49:52;99075.19;;;3.29;96.91
61039;BME280;46919;45.816;3.104;2023-02-01T00:52:17;99072.75;;;3.35;96.67
61039;BME280;46919;45.816;3.104;2023-02-01T00:54:42;99068.22;;;3.36;95.90
61039;BME280;46919;45.816;3.104;2023-02-01T00:57:08;99072.22;;;3.32;96.45
61039;BME280;46919;45.816;3.104;2023-02-01T00:59:33;99061.25;;;3.25;97.32
61039;BME280;46919;45.816;3.104;2023-02-01T01:01:59;99066.91;;;3.22;97.49
61039;BME280;46919;45.816;3.104;2023-02-01T01:04:24;99064.94;;;3.24;97.47
61039;BME280;46919;45.816;3.104;2023-02-01T01:06:49;99063.25;;;3.23;97.77
61039;BME280;46919;45.816;3.104;2023-02-01T01:09:15;99057.91;;;3.23;97.86
61039;BME280;46919;45.816;3.104;2023-02-01T01:11:40;99060.56;;;3.23;97.70
61039;BME280;46919;45.816;3.104;2023-02-01T01:14:07;99063.25;;;3.23;97.86
61039;BME280;46919;45.816;3.104;2023-02-01T01:16:33;99063.53;;;3.20;97.58
61039;BME280;46919;45.816;3.104;2023-02-01T01:18:59;99070.88;;;3.18;98.18
61039;BME280;46919;45.816;3.104;2023-02-01T01:21:25;99064.69;;;3.17;98.05
61039;BME280;46919;45.816;3.104;2023-02-01T01:23:51;99062.16;;;3.16;98.12
61039;BME280;46919;45.816;3.104;2023-02-01T01:26:19;99062.47;;;3.13;98.26
61039;BME280;46919;45.816;3.104;2023-02-01T01:28:45;99065.59;;;3.08;98.69
61039;BME280;46919;45.816;3.104;2023-02-01T01:31:11;99067.97;;;3.01;98.79
61039;BME280;46919;45.816;3.104;2023-02-01T01:33:37;99062.09;;;2.98;98.88
61039;BME280;46919;45.816;3.104;2023-02-01T01:36:07;99063.41;;;2.94;99.32
61039;BME280;46919;45.816;3.104;2023-02-01T01:38:32;99074.91;;;2.94;99.30
61039;BME280;46919;45.816;3.104;2023-02-01T01:40:58;99075.06;;;2.93;99.25
61039;BME280;46919;45.816;3.104;2023-02-01T01:43:23;99075.34;;;2.89;99.49
61039;BME280;46919;45.816;3.104;2023-02-01T01:45:49;99073.66;;;2.88;99.38
61039;BME280;46919;45.816;3.104;2023-02-01T01:48:29;99070.16;;;2.88;99.71
61039;BME280;46919;45.816;3.104;2023-02-01T01:51:03;99078.59;;;2.83;100.00
61039;BME280;46919;45.816;3.104;2023-02-01T01:53:38;99069.75;;;2.83;100.00
61039;BME280;46919;45.816;3.104;2023-02-01T01:56:06;99069.75;;;2.83;100.00
61039;BME280;46919;45.816;3.104;2023-02-01T01:58:33;99069.06;;;2.81;100.00
61039;BME280;46919;45.816;3.104;2023-02-01T02:00:58;99071.41;;;2.84;100.00
61039;BME280;46919;45.816;3.104;2023-02-01T02:03:32;99073.13;;;2.85;99.96
61039;BME280;46919;45.816;3.104;2023-02-01T02:06:01;99070.72;;;2.82;100.00
61039;BME280;46919;45.816;3.104;2023-02-01T02:08:28;99070.06;;;2.80;100.00
61039;BME280;46919;45.816;3.104;2023-02-01T02:10:53;99064.84;;;2.78;100.00
61039;BME280;46919;45.816;3.104;2023-02-01T02:13:27;99062.47;;;2.75;100.00
61039;BME280;46919;45.816;3.104;2023-02-01T02:21:14;99075.97;;;2.74;100.00
61039;BME280;46919;45.816;3.104;2023-02-01T02:37:45;99051.44;;;2.50;100.00
61039;BME280;46919;45.816;3.104;2023-02-01T02:45:55;99056.25;;;2.37;100.00
61039;BME280;46919;45.816;3.104;2023-02-01T02:49:00;99056.00;;;2.30;100.00
61039;BME280;46919;45.816;3.104;2023-02-01T02:51:41;99051.50;;;2.21;100.00
61039;BME280;46919;45.816;3.104;2023-02-01T02:54:33;99046.47;;;2.18;100.00
61039;BME280;46919;45.816;3.104;2023-02-01T02:57:17;99049.00;;;2.20;100.00
61039;BME280;46919;45.816;3.104;2023-02-01T03:00:04;99044.75;;;2.27;100.00
61039;BME280;46919;45.816;3.104;2023-02-01T03:02:50;99048.38;;;2.45;100.00
61039;BME280;46919;45.816;3.104;2023-02-01T03:05:44;99045.56;;;2.47;100.00
61039;BME280;46919;45.816;3.104;2023-02-01T03:08:12;99042.88;;;2.47;100.00
61039;BME280;46919;45.816;3.104;2023-02-01T03:10:48;99033.44;;;2.62;100.00
61039;BME280;46919;45.816;3.104;2023-02-01T03:21:07;99040.94;;;3.14;98.14
61039;BME280;46919;45.816;3.104;2023-02-01T03:23:36;99043.81;;;3.31;97.05
61039;BME280;46919;45.816;3.104;2023-02-01T03:26:05;99047.09;;;3.42;96.40
61039;BME280;46919;45.816;3.104;2023-02-01T03:28:34;99042.38;;;3.54;95.13
61039;BME280;46919;45.816;3.104;2023-02-01T03:31:01;99034.28;;;3.64;94.19
61039;BME280;46919;45.816;3.104;2023-02-01T03:33:28;99043.25;;;3.73;93.47
61039;BME280;46919;45.816;3.104;2023-02-01T03:41:47;99049.66;;;3.80;92.38
61039;BME280;46919;45.816;3.104;2023-02-01T03:44:16;99047.13;;;3.78;92.32
61039;BME280;46919;45.816;3.104;2023-02-01T03:46:55;99060.19;;;3.81;91.93
61039;BME280;46919;45.816;3.104;2023-02-01T03:49:41;99061.88;;;3.83;91.47
61039;BME280;46919;45.816;3.104;2023-02-01T03:52:18;99056.53;;;3.83;91.73
61039;BME280;46919;45.816;3.104;2023-02-01T03:54:46;99066.78;;;3.87;90.98
61039;BME280;46919;45.816;3.104;2023-02-01T03:57:14;99071.38;;;3.95;89.78
61039;BME280;46919;45.816;3.104;2023-02-01T03:59:42;99076.72;;;3.95;89.10
61039;BME280;46919;45.816;3.104;2023-02-01T04:02:09;99076.72;;;3.95;88.62
61039;BME280;46919;45.816;3.104;2023-02-01T04:04:35;99078.69;;;3.93;88.85
61039;BME280;46919;45.816;3.104;2023-02-01T04:07:00;99083.19;;;3.92;88.96
61039;BME280;46919;45.816;3.104;2023-02-01T04:09:26;99096.72;;;3.91;88.40
61039;BME280;46919;45.816;3.104;2023-02-01T04:11:51;99090.09;;;3.95;88.21
61039;BME280;46919;45.816;3.104;2023-02-01T04:14:17;99093.44;;;3.97;87.93
61039;BME280;46919;45.816;3.104;2023-02-01T04:16:43;99090.31;;;4.02;87.91
61039;BME280;46919;45.816;3.104;2023-02-01T04:19:09;99084.19;;;4.09;86.92
61039;BME280;46919;45.816;3.104;2023-02-01T04:21:34;99079.69;;;4.10;86.90
61039;BME280;46919;45.816;3.104;2023-02-01T04:24:00;99088.84;;;4.07;87.39
61039;BME280;46919;45.816;3.104;2023-02-01T04:26:25;99086.22;;;4.15;86.75
61039;BME280;46919;45.816;3.104;2023-02-01T04:28:51;99087.41;;;4.13;87.19
61039;BME280;46919;45.816;3.104;2023-02-01T04:31:18;99089.25;;;4.12;87.22
61039;BME280;46919;45.816;3.104;2023-02-01T04:33:51;99085.41;;;4.15;87.05
61039;BME280;46919;45.816;3.104;2023-02-01T04:36:18;99086.06;;;4.17;86.63
61039;BME280;46919;45.816;3.104;2023-02-01T04:38:46;99082.88;;;4.13;86.37
61039;BME280;46919;45.816;3.104;2023-02-01T04:41:11;99088.69;;;4.09;87.10
61039;BME280;46919;45.816;3.104;2023-02-01T04:43:36;99078.53;;;4.12;86.77
61039;BME280;46919;45.816;3.104;2023-02-01T04:46:02;99083.56;;;4.15;86.81
61039;BME280;46919;45.816;3.104;2023-02-01T04:48:28;99086.22;;;4.15;86.80
61039;BME280;46919;45.816;3.104;2023-02-01T04:50:53;99080.56;;;4.18;86.36
61039;BME280;46919;45.816;3.104;2023-02-01T04:53:18;99081.28;;;4.21;86.26
61039;BME280;46919;45.816;3.104;2023-02-01T04:55:44;99080.41;;;4.20;86.22
61039;BME280;46919;45.816;3.104;2023-02-01T04:58:10;99076.91;;;4.20;86.63
61039;BME280;46919;45.816;3.104;2023-02-01T05:00:37;99081.94;;;4.23;86.52
61039;BME280;46919;45.816;3.104;2023-02-01T05:03:03;99072.09;;;4.23;86.49
61039;BME280;46919;45.816;3.104;2023-02-01T05:05:28;99076.91;;;4.20;86.97
61039;BME280;46919;45.816;3.104;2023-02-01T05:07:54;99080.88;;;4.15;87.67
61039;BME280;46919;45.816;3.104;2023-02-01T05:10:20;99086.22;;;4.15;87.63
61039;BME280;46919;45.816;3.104;2023-02-01T05:12:46;99084.56;;;4.14;87.89
61039;BME280;46919;45.816;3.104;2023-02-01T05:15:30;99078.53;;;4.12;87.89
61039;BME280;46919;45.816;3.104;2023-02-01T05:17:56;99079.38;;;4.13;88.24
61039;BME280;46919;45.816;3.104;2023-02-01T05:20:22;99072.84;;;4.15;88.28
61039;BME280;46919;45.816;3.104;2023-02-01T05:22:48;99062.00;;;4.17;88.31
61039;BME280;46919;45.816;3.104;2023-02-01T05:25:13;99080.03;;;4.15;88.72
61039;BME280;46919;45.816;3.104;2023-02-01T05:27:39;99071.88;;;4.16;88.35
61039;BME280;46919;45.816;3.104;2023-02-01T05:30:08;99083.66;;;4.24;87.83
61039;BME280;46919;45.816;3.104;2023-02-01T05:32:33;99074.59;;;4.25;88.14
61039;BME280;46919;45.816;3.104;2023-02-01T05:34:59;99080.25;;;4.22;88.01
61039;BME280;46919;45.816;3.104;2023-02-01T05:37:25;99082.94;;;4.22;88.30
61039;BME280;46919;45.816;3.104;2023-02-01T05:39:50;99081.94;;;4.23;88.24
61039;BME280;46919;45.816;3.104;2023-02-01T05:42:16;99077.69;;;4.30;88.13
61039;BME280;46919;45.816;3.104;2023-02-01T05:44:41;99078.66;;;4.29;88.02
61039;BME280;46919;45.816;3.104;2023-02-01T05:47:07;99077.97;;;4.27;88.41
61039;BME280;46919;45.816;3.104;2023-02-01T05:49:33;99091.22;;;4.28;88.38
61039;BME280;46919;45.816;3.104;2023-02-01T05:51:58;99090.50;;;4.26;88.23
61039;BME280;46919;45.816;3.104;2023-02-01T05:54:23;99076.81;;;4.29;88.05
61039;BME280;46919;45.816;3.104;2023-02-01T05:56:49;99086.16;;;4.25;88.48
61039;BME280;46919;45.816;3.104;2023-02-01T05:59:14;99077.97;;;4.27;88.32
61039;BME280;46919;45.816;3.104;2023-02-01T06:01:40;99077.69;;;4.30;88.12
61039;BME280;46919;45.816;3.104;2023-02-01T06:04:05;99079.34;;;4.31;87.86
61039;BME280;46919;45.816;3.104;2023-02-01T06:06:31;99075.69;;;4.32;87.94
61039;BME280;46919;45.816;3.104;2023-02-01T06:08:56;99079.69;;;4.36;87.94
61039;BME280;46919;45.816;3.104;2023-02-01T06:11:21;99081.19;;;4.30;88.27
61039;BME280;46919;45.816;3.104;2023-02-01T06:13:47;99087.22;;;4.32;88.05
61039;BME280;46919;45.816;3.104;2023-02-01T06:16:12;99081.75;;;4.42;87.43
61039;BME280;46919;45.816;3.104;2023-02-01T06:18:40;99074.59;;;4.43;87.19
61039;BME280;46919;45.816;3.104;2023-02-01T06:21:06;99091.31;;;4.45;87.09
61039;BME280;46919;45.816;3.104;2023-02-01T06:23:31;99085.44;;;4.41;87.17
61039;BME280;46919;45.816;3.104;2023-02-01T06:26:05;99095.44;;;4.39;87.48
61039;BME280;46919;45.816;3.104;2023-02-01T06:28:32;99097.66;;;4.44;87.32
61039;BME280;46919;45.816;3.104;2023-02-01T06:30:57;99087.81;;;4.44;87.36
61039;BME280;46919;45.816;3.104;2023-02-01T06:33:26;99090.50;;;4.44;87.17
61039;BME280;46919;45.816;3.104;2023-02-01T06:36:02;99087.50;;;4.47;86.56
61039;BME280;46919;45.816;3.104;2023-02-01T06:38:29;99089.13;;;4.40;87.33
61039;BME280;46919;45.816;3.104;2023-02-01T06:40:56;99086.75;;;4.37;87.43
61039;BME280;46919;45.816;3.104;2023-02-01T06:43:23;99081.72;;;4.34;87.88
61039;BME280;46919;45.816;3.104;2023-02-01T06:45:49;99097.09;;;4.32;88.04
61039;BME280;46919;45.816;3.104;2023-02-01T06:48:15;99088.22;;;4.31;88.09
61039;BME280;46919;45.816;3.104;2023-02-01T06:50:41;99098.94;;;4.31;88.00
61039;BME280;46919;45.816;3.104;2023-02-01T06:53:06;99101.06;;;4.28;89.02
61039;BME280;46919;45.816;3.104;2023-02-01T06:55:31;99097.19;;;4.22;89.31
61039;BME280;46919;45.816;3.104;2023-02-01T06:57:57;99104.97;;;4.15;89.84
61039;BME280;46919;45.816;3.104;2023-02-01T07:00:22;99103.44;;;4.13;90.27
61039;BME280;46919;45.816;3.104;2023-02-01T07:02:49;99106.44;;;4.10;90.36
61039;BME280;46919;45.816;3.104;2023-02-01T07:05:15;99112.09;;;4.07;91.04
61039;BME280;46919;45.816;3.104;2023-02-01T07:07:40;99116.91;;;4.03;91.11
61039;BME280;46919;45.816;3.104;2023-02-01T07:10:06;99122.56;;;4.00;91.32
61039;BME280;46919;45.816;3.104;2023-02-01T07:12:31;99126.38;;;3.97;91.74
61039;BME280;46919;45.816;3.104;2023-02-01T07:14:57;99127.53;;;3.95;92.04
61039;BME280;46919;45.816;3.104;2023-02-01T07:17:23;99130.34;;;3.93;92.26
61039;BME280;46919;45.816;3.104;2023-02-01T07:19:48;99135.16;;;3.90;92.51
61039;BME280;46919;45.816;3.104;2023-02-01T07:22:16;99141.34;;;3.90;92.94
61039;BME280;46919;45.816;3.104;2023-02-01T07:24:42;99146.84;;;3.89;93.00
61039;BME280;46919;45.816;3.104;2023-02-01T07:27:07;99141.50;;;3.89;93.39
61039;BME280;46919;45.816;3.104;2023-02-01T07:29:32;99138.13;;;3.87;93.69
61039;BME280;46919;45.816;3.104;2023-02-01T07:31:58;99139.13;;;3.86;94.11
61039;BME280;46919;45.816;3.104;2023-02-01T07:34:23;99146.28;;;3.85;94.29
61039;BME280;46919;45.816;3.104;2023-02-01T07:36:49;99151.50;;;3.87;94.29
61039;BME280;46919;45.816;3.104;2023-02-01T07:39:14;99155.56;;;3.91;94.44
61039;BME280;46919;45.816;3.104;2023-02-01T07:41:40;99158.53;;;3.88;94.06
61039;BME280;46919;45.816;3.104;2023-02-01T07:44:05;99154.88;;;3.89;94.11
61039;BME280;46919;45.816;3.104;2023-02-01T07:46:30;99156.53;;;3.90;94.15
61039;BME280;46919;45.816;3.104;2023-02-01T07:48:56;99149.22;;;3.92;93.66
61039;BME280;46919;45.816;3.104;2023-02-01T07:51:21;99161.59;;;3.93;93.74
61039;BME280;46919;45.816;3.104;2023-02-01T07:53:47;99157.41;;;3.90;94.05
61039;BME280;46919;45.816;3.104;2023-02-01T07:56:19;99165.81;;;3.95;94.53
61039;BME280;46919;45.816;3.104;2023-02-01T07:58:52;99159.28;;;3.98;93.96
61039;BME280;46919;45.816;3.104;2023-02-01T08:01:21;99161.66;;;4.01;94.07
61039;BME280;46919;45.816;3.104;2023-02-01T08:03:59;99169.69;;;4.01;94.44
61039;BME280;46919;45.816;3.104;2023-02-01T08:06:26;99165.75;;;4.05;95.09
61039;BME280;46919;45.816;3.104;2023-02-01T08:08:53;99169.03;;;4.17;95.31
61039;BME280;46919;45.816;3.104;2023-02-01T08:11:20;99171.81;;;4.25;95.31
61039;BME280;46919;45.816;3.104;2023-02-01T08:13:46;99168.34;;;4.33;95.15
61039;BME280;46919;45.816;3.104;2023-02-01T08:16:12;99163.22;;;4.40;95.21
61039;BME280;46919;45.816;3.104;2023-02-01T08:18:38;99154.19;;;4.41;95.02
61039;BME280;46919;45.816;3.104;2023-02-01T08:21:10;99160.09;;;4.44;94.70
61039;BME280;46919;45.816;3.104;2023-02-01T08:23:37;99158.41;;;4.43;94.72
61039;BME280;46919;45.816;3.104;2023-02-01T08:28:34;99166.13;;;4.46;94.13
61039;BME280;46919;45.816;3.104;2023-02-01T08:31:04;99166.66;;;4.50;93.92
61039;BME280;46919;45.816;3.104;2023-02-01T08:33:29;99178.91;;;4.52;93.83
61039;BME280;46919;45.816;3.104;2023-02-01T08:35:54;99183.09;;;4.55;93.51
61039;BME280;46919;45.816;3.104;2023-02-01T08:38:20;99181.94;;;4.58;93.09
61039;BME280;46919;45.816;3.104;2023-02-01T08:40:45;99181.34;;;4.64;93.44
61039;BME280;46919;45.816;3.104;2023-02-01T08:43:11;99183.03;;;4.65;93.63
61039;BME280;46919;45.816;3.104;2023-02-01T08:45:36;99185.84;;;4.63;93.68
61039;BME280;46919;45.816;3.104;2023-02-01T08:48:02;99190.97;;;4.57;93.62
61039;BME280;46919;45.816;3.104;2023-02-01T08:50:27;99188.59;;;4.53;93.61
61039;BME280;46919;45.816;3.104;2023-02-01T08:52:53;99190.97;;;4.57;93.44
61039;BME280;46919;45.816;3.104;2023-02-01T08:55:20;99194.66;;;4.56;93.14
61039;BME280;46919;45.816;3.104;2023-02-01T08:57:45;99188.75;;;4.52;92.81
61039;BME280;46919;45.816;3.104;2023-02-01T09:00:13;99196.47;;;4.55;92.64
61039;BME280;46919;45.816;3.104;2023-02-01T09:02:40;99200.00;;;4.56;92.44
61039;BME280;46919;45.816;3.104;2023-02-01T09:05:06;99204.75;;;4.62;92.22
61039;BME280;46919;45.816;3.104;2023-02-01T09:07:32;99216.34;;;4.70;92.11
61039;BME280;46919;45.816;3.104;2023-02-01T09:09:58;99213.53;;;4.72;91.89
61039;BME280;46919;45.816;3.104;2023-02-01T09:12:27;99218.44;;;4.77;91.61
61039;BME280;46919;45.816;3.104;2023-02-01T09:14:54;99220.63;;;4.81;91.46
61039;BME280;46919;45.816;3.104;2023-02-01T09:17:19;99238.41;;;4.82;91.25
61039;BME280;46919;45.816;3.104;2023-02-01T09:19:45;99240.38;;;4.80;91.44
61039;BME280;46919;45.816;3.104;2023-02-01T09:22:10;99241.25;;;4.81;91.22
61039;BME280;46919;45.816;3.104;2023-02-01T09:24:35;99239.84;;;4.77;91.11
61039;BME280;46919;45.816;3.104;2023-02-01T09:27:01;99241.84;;;4.75;91.26
61039;BME280;46919;45.816;3.104;2023-02-01T09:29:26;99239.31;;;4.73;91.29
61039;BME280;46919;45.816;3.104;2023-02-01T09:31:51;99239.31;;;4.73;90.82
61039;BME280;46919;45.816;3.104;2023-02-01T09:34:17;99243.91;;;4.81;91.28
61039;BME280;46919;45.816;3.104;2023-02-01T09:36:42;99245.13;;;4.86;90.80
61039;BME280;46919;45.816;3.104;2023-02-01T09:39:08;99251.41;;;4.95;90.98
61039;BME280;46919;45.816;3.104;2023-02-01T09:41:51;99260.69;;;5.09;90.93
61039;BME280;46919;45.816;3.104;2023-02-01T09:44:52;99260.22;;;5.14;90.49
61039;BME280;46919;45.816;3.104;2023-02-01T09:47:22;99263.47;;;5.17;90.27
61039;BME280;46919;45.816;3.104;2023-02-01T09:49:56;99264.72;;;5.31;90.36
61039;BME280;46919;45.816;3.104;2023-02-01T09:52:32;99257.25;;;5.43;90.47
61039;BME280;46919;45.816;3.104;2023-02-01T09:55:14;99263.88;;;5.57;90.12
61039;BME280;46919;45.816;3.104;2023-02-01T09:58:01;99262.06;;;5.66;89.98
61039;BME280;46919;45.816;3.104;2023-02-01T10:00:35;99262.50;;;5.79;89.75
61039;BME280;46919;45.816;3.104;2023-02-01T10:03:01;99260.34;;;5.91;89.63
61039;BME280;46919;45.816;3.104;2023-02-01T10:05:43;99262.06;;;5.92;89.35
61039;BME280;46919;45.816;3.104;2023-02-01T10:10:52;99271.56;;;5.86;89.27
61039;BME280;46919;45.816;3.104;2023-02-01T10:13:34;99276.59;;;5.81;89.25
61039;BME280;46919;45.816;3.104;2023-02-01T10:23:58;99269.34;;;5.73;89.45
61039;BME280;46919;45.816;3.104;2023-02-01T10:26:32;99269.53;;;5.80;88.94
61039;BME280;46919;45.816;3.104;2023-02-01T10:29:02;99267.19;;;5.85;88.67
61039;BME280;46919;45.816;3.104;2023-02-01T10:31:35;99266.56;;;5.91;88.65
61039;BME280;46919;45.816;3.104;2023-02-01T10:34:31;99269.03;;;6.11;88.69
61039;BME280;46919;45.816;3.104;2023-02-01T10:37:13;99265.03;;;6.23;88.14
61039;BME280;46919;45.816;3.104;2023-02-01T10:39:48;99254.84;;;6.35;88.22
61039;BME280;46919;45.816;3.104;2023-02-01T10:42:24;99255.34;;;6.47;88.18
61039;BME280;46919;45.816;3.104;2023-02-01T10:44:49;99252.00;;;6.45;88.12
61039;BME280;46919;45.816;3.104;2023-02-01T10:47:15;99252.34;;;6.50;88.07
61039;BME280;46919;45.816;3.104;2023-02-01T10:49:49;99255.72;;;6.52;87.85
61039;BME280;46919;45.816;3.104;2023-02-01T10:52:40;99249.88;;;6.57;88.22
61039;BME280;46919;45.816;3.104;2023-02-01T10:58:28;99246.84;;;6.84;87.47
61039;BME280;46919;45.816;3.104;2023-02-01T11:00:58;99247.34;;;6.88;87.13
61039;BME280;46919;45.816;3.104;2023-02-01T11:04:12;99239.47;;;6.95;86.78
61039;BME280;46919;45.816;3.104;2023-02-01T11:06:41;99250.22;;;7.03;85.91
61039;BME280;46919;45.816;3.104;2023-02-01T11:11:35;99244.63;;;7.29;84.86
61039;BME280;46919;45.816;3.104;2023-02-01T11:14:40;99242.81;;;7.30;80.90
61039;BME280;46919;45.816;3.104;2023-02-01T11:19:46;99231.22;;;7.21;80.17
61039;BME280;46919;45.816;3.104;2023-02-01T11:22:13;99224.16;;;7.20;77.76
61039;BME280;46919;45.816;3.104;2023-02-01T11:24:40;99219.97;;;7.17;78.10
61039;BME280;46919;45.816;3.104;2023-02-01T11:27:15;99215.56;;;7.24;77.87
61039;BME280;46919;45.816;3.104;2023-02-01T11:29:43;99210.38;;;7.31;77.81
61039;BME280;46919;45.816;3.104;2023-02-01T11:32:10;99209.47;;;7.39;77.13
61039;BME280;46919;45.816;3.104;2023-02-01T11:34:45;99209.50;;;7.31;75.96
61039;BME280;46919;45.816;3.104;2023-02-01T11:37:20;99202.09;;;7.41;76.33
61039;BME280;46919;45.816;3.104;2023-02-01T11:39:55;99206.63;;;7.40;75.52
61039;BME280;46919;45.816;3.104;2023-02-01T11:42:21;99201.94;;;7.42;75.10
61039;BME280;46919;45.816;3.104;2023-02-01T11:44:47;99190.63;;;7.55;74.61
61039;BME280;46919;45.816;3.104;2023-02-01T11:47:28;99191.06;;;7.67;72.76
61039;BME280;46919;45.816;3.104;2023-02-01T11:50:02;99191.34;;;7.89;72.75
61039;BME280;46919;45.816;3.104;2023-02-01T12:06:48;99172.91;;;8.32;71.39
61039;BME280;46919;45.816;3.104;2023-02-01T12:17:46;99172.75;;;8.02;68.79
61039;BME280;46919;45.816;3.104;2023-02-01T12:20:48;99176.19;;;7.88;68.26
61039;BME280;46919;45.816;3.104;2023-02-01T12:31:38;99162.66;;;7.73;66.52
61039;BME280;46919;45.816;3.104;2023-02-01T12:34:42;99162.59;;;7.81;65.76
61039;BME280;46919;45.816;3.104;2023-02-01T12:40:17;99157.41;;;7.79;64.07
61039;BME280;46919;45.816;3.104;2023-02-01T12:42:59;99143.59;;;7.83;63.36
61039;BME280;46919;45.816;3.104;2023-02-01T12:45:33;99144.28;;;7.76;62.59
61039;BME280;46919;45.816;3.104;2023-02-01T12:48:22;99143.28;;;7.77;62.52
61039;BME280;46919;45.816;3.104;2023-02-01T12:50:57;99145.47;;;7.74;63.58
61039;BME280;46919;45.816;3.104;2023-02-01T12:53:26;99142.25;;;7.78;64.20
61039;BME280;46919;45.816;3.104;2023-02-01T12:56:01;99137.56;;;7.72;63.99
61039;BME280;46919;45.816;3.104;2023-02-01T12:58:53;99135.09;;;7.71;64.40
61039;BME280;46919;45.816;3.104;2023-02-01T13:01:42;99135.09;;;7.71;64.64
61039;BME280;46919;45.816;3.104;2023-02-01T13:04:17;99134.22;;;7.70;64.21
61039;BME280;46919;45.816;3.104;2023-02-01T13:06:51;99132.91;;;7.66;63.31
61039;BME280;46919;45.816;3.104;2023-02-01T13:11:55;99121.81;;;7.61;62.80
61039;BME280;46919;45.816;3.104;2023-02-01T13:17:05;99114.25;;;7.65;62.69
61039;BME280;46919;45.816;3.104;2023-02-01T13:19:56;99105.50;;;7.62;63.06
61039;BME280;46919;45.816;3.104;2023-02-01T13:22:27;99101.16;;;7.61;63.59
61039;BME280;46919;45.816;3.104;2023-02-01T13:24:58;99105.28;;;7.72;63.73
61039;BME280;46919;45.816;3.104;2023-02-01T13:27:29;99097.88;;;7.74;63.58
61039;BME280;46919;45.816;3.104;2023-02-01T13:40:45;99092.56;;;7.66;62.78
61039;BME280;46919;45.816;3.104;2023-02-01T13:43:22;99087.53;;;7.55;62.39
61039;BME280;46919;45.816;3.104;2023-02-01T13:45:51;99094.66;;;7.48;62.80
61039;BME280;46919;45.816;3.104;2023-02-01T13:48:21;99085.22;;;7.52;62.87
61039;BME280;46919;45.816;3.104;2023-02-01T13:50:54;99088.41;;;7.55;62.72
61039;BME280;46919;45.816;3.104;2023-02-01T13:53:30;99079.81;;;7.60;62.12
61039;BME280;46919;45.816;3.104;2023-02-01T13:56:00;99076.44;;;7.58;61.81
61039;BME280;46919;45.816;3.104;2023-02-01T13:58:41;99075.44;;;7.59;62.06
61039;BME280;46919;45.816;3.104;2023-02-01T14:03:57;99080.94;;;7.66;61.85
61039;BME280;46919;45.816;3.104;2023-02-01T14:19:33;99064.72;;;7.51;59.80
61039;BME280;46919;45.816;3.104;2023-02-01T14:22:01;99064.59;;;7.44;60.77
61039;BME280;46919;45.816;3.104;2023-02-01T14:24:53;99072.16;;;7.72;60.70
61039;BME280;46919;45.816;3.104;2023-02-01T14:27:23;99068.53;;;7.88;59.63
61039;BME280;46919;45.816;3.104;2023-02-01T14:29:52;99078.00;;;7.75;59.57
61039;BME280;46919;45.816;3.104;2023-02-01T14:32:43;99068.34;;;7.66;59.72
61039;BME280;46919;45.816;3.104;2023-02-01T14:35:18;99077.47;;;7.57;60.38
61039;BME280;46919;45.816;3.104;2023-02-01T14:37:45;99072.13;;;7.49;60.28
61039;BME280;46919;45.816;3.104;2023-02-01T14:42:45;99074.31;;;7.45;60.87
61039;BME280;46919;45.816;3.104;2023-02-01T14:55:44;99092.09;;;7.54;59.79
61039;BME280;46919;45.816;3.104;2023-02-01T14:58:32;99093.81;;;7.47;60.46
61039;BME280;46919;45.816;3.104;2023-02-01T15:01:30;99102.06;;;7.37;60.90
61039;BME280;46919;45.816;3.104;2023-02-01T15:06:42;99103.31;;;7.18;59.99
61039;BME280;46919;45.816;3.104;2023-02-01T15:09:13;99106.03;;;7.10;60.47
61039;BME280;46919;45.816;3.104;2023-02-01T15:14:27;99114.97;;;6.94;60.31
61039;BME280;46919;45.816;3.104;2023-02-01T15:16:53;99114.16;;;6.94;60.13
61039;BME280;46919;45.816;3.104;2023-02-01T15:19:24;99110.63;;;6.85;60.63
61039;BME280;46919;45.816;3.104;2023-02-01T15:21:51;99118.69;;;6.85;60.79
61039;BME280;46919;45.816;3.104;2023-02-01T15:24:23;99114.00;;;6.79;60.77
61039;BME280;46919;45.816;3.104;2023-02-01T15:26:51;99118.56;;;6.70;61.18
61039;BME280;46919;45.816;3.104;2023-02-01T15:29:19;99107.81;;;6.70;61.43
61039;BME280;46919;45.816;3.104;2023-02-01T15:31:54;99105.47;;;6.67;61.29
61039;BME280;46919;45.816;3.104;2023-02-01T15:34:20;99108.16;;;6.67;61.47
61039;BME280;46919;45.816;3.104;2023-02-01T15:36:46;99107.97;;;6.68;61.59
61039;BME280;46919;45.816;3.104;2023-02-01T15:41:37;99110.34;;;6.63;61.36
61039;BME280;46919;45.816;3.104;2023-02-01T15:44:07;99108.31;;;6.65;61.47
61039;BME280;46919;45.816;3.104;2023-02-01T15:46:49;99117.72;;;6.69;61.36
61039;BME280;46919;45.816;3.104;2023-02-01T15:49:39;99125.78;;;6.69;60.30
61039;BME280;46919;45.816;3.104;2023-02-01T15:54:52;99151.31;;;6.57;61.39